sensor_id;sensor_type;location;lat;lon;timestamp;P1;durP1;ratioP1;P2;durP2;ratioP2
23242;SDS011;11790;49.578;11.214;2023-04-08T00:02:57;17.58;;;10.73;;
23242;SDS011;11790;49.578;11.214;2023-04-08T00:07:57;19.83;;;11.20;;
23242;SDS011;11790;49.578;11.214;2023-04-08T00:12:57;27.80;;;11.88;;
23242;SDS011;11790;49.578;11.214;2023-04-08T00:17:59;18.00;;;11.23;;
23242;SDS011;11790;49.578;11.214;2023-04-08T00:23:00;20.42;;;12.32;;
23242;SDS011;11790;49.578;11.214;2023-04-08T00:28:00;25.20;;;11.85;;
23242;SDS011;11790;49.578;11.214;2023-04-08T00:33:00;19.38;;;11.40;;
23242;SDS011;11790;49.578;11.214;2023-04-08T00:38:00;21.45;;;12.35;;
23242;SDS011;11790;49.578;11.214;2023-04-08T00:43:01;18.30;;;11.80;;
23242;SDS011;11790;49.578;11.214;2023-04-08T00:48:01;18.33;;;11.77;;
23242;SDS011;11790;49.578;11.214;2023-04-08T00:53:02;21.10;;;12.55;;
23242;SDS011;11790;49.578;11.214;2023-04-08T00:58:02;21.15;;;13.15;;
23242;SDS011;11790;49.578;11.214;2023-04-08T01:08:38;19.67;;;12.13;;
23242;SDS011;11790;49.578;11.214;2023-04-08T01:13:41;22.13;;;12.90;;
23242;SDS011;11790;49.578;11.214;2023-04-08T01:18:42;20.77;;;11.52;;
23242;SDS011;11790;49.578;11.214;2023-04-08T01:23:58;16.83;;;11.32;;
23242;SDS011;11790;49.578;11.214;2023-04-08T01:29:01;19.48;;;11.88;;
23242;SDS011;11790;49.578;11.214;2023-04-08T01:34:01;20.77;;;12.50;;
23242;SDS011;11790;49.578;11.214;2023-04-08T01:39:03;19.70;;;11.98;;
23242;SDS011;11790;49.578;11.214;2023-04-08T01:44:04;18.58;;;12.10;;
23242;SDS011;11790;49.578;11.214;2023-04-08T01:49:06;19.88;;;10.85;;
23242;SDS011;11790;49.578;11.214;2023-04-08T01:54:06;15.00;;;10.25;;
23242;SDS011;11790;49.578;11.214;2023-04-08T01:59:09;16.77;;;10.33;;
23242;SDS011;11790;49.578;11.214;2023-04-08T02:04:10;19.30;;;12.05;;
23242;SDS011;11790;49.578;11.214;2023-04-08T02:09:11;22.17;;;13.13;;
23242;SDS011;11790;49.578;11.214;2023-04-08T02:14:11;22.17;;;12.07;;
23242;SDS011;11790;49.578;11.214;2023-04-08T02:19:17;19.58;;;12.00;;
23242;SDS011;11790;49.578;11.214;2023-04-08T02:24:18;18.20;;;11.38;;
23242;SDS011;11790;49.578;11.214;2023-04-08T02:29:19;18.33;;;11.52;;
23242;SDS011;11790;49.578;11.214;2023-04-08T02:34:20;20.42;;;11.85;;
23242;SDS011;11790;49.578;11.214;2023-04-08T02:39:21;19.65;;;12.30;;
23242;SDS011;11790;49.578;11.214;2023-04-08T02:44:29;19.35;;;12.63;;
23242;SDS011;11790;49.578;11.214;2023-04-08T02:49:29;19.65;;;11.98;;
23242;SDS011;11790;49.578;11.214;2023-04-08T02:54:29;22.10;;;12.85;;
23242;SDS011;11790;49.578;11.214;2023-04-08T02:59:30;21.02;;;12.82;;
23242;SDS011;11790;49.578;11.214;2023-04-08T03:04:30;20.40;;;12.48;;
23242;SDS011;11790;49.578;11.214;2023-04-08T03:09:30;18.88;;;12.02;;
23242;SDS011;11790;49.578;11.214;2023-04-08T03:14:30;25.67;;;13.10;;
23242;SDS011;11790;49.578;11.214;2023-04-08T03:19:31;20.30;;;12.82;;
23242;SDS011;11790;49.578;11.214;2023-04-08T03:24:31;21.95;;;13.32;;
23242;SDS011;11790;49.578;11.214;2023-04-08T03:29:31;21.40;;;12.98;;
23242;SDS011;11790;49.578;11.214;2023-04-08T03:34:32;22.30;;;12.23;;
23242;SDS011;11790;49.578;11.214;2023-04-08T03:39:32;25.08;;;13.75;;
23242;SDS011;11790;49.578;11.214;2023-04-08T03:44:32;24.70;;;13.18;;
23242;SDS011;11790;49.578;11.214;2023-04-08T03:49:33;21.73;;;12.63;;
23242;SDS011;11790;49.578;11.214;2023-04-08T03:54:33;19.75;;;12.48;;
23242;SDS011;11790;49.578;11.214;2023-04-08T03:59:33;20.85;;;12.85;;
23242;SDS011;11790;49.578;11.214;2023-04-08T04:04:35;20.25;;;12.48;;
23242;SDS011;11790;49.578;11.214;2023-04-08T04:09:35;21.60;;;12.38;;
23242;SDS011;11790;49.578;11.214;2023-04-08T04:14:36;21.35;;;13.27;;
23242;SDS011;11790;49.578;11.214;2023-04-08T04:19:36;21.83;;;12.40;;
23242;SDS011;11790;49.578;11.214;2023-04-08T04:24:36;20.27;;;13.18;;
23242;SDS011;11790;49.578;11.214;2023-04-08T04:29:36;21.73;;;12.93;;
23242;SDS011;11790;49.578;11.214;2023-04-08T04:34:36;19.38;;;11.88;;
23242;SDS011;11790;49.578;11.214;2023-04-08T04:39:37;18.02;;;11.00;;
23242;SDS011;11790;49.578;11.214;2023-04-08T04:44:37;17.98;;;10.93;;
23242;SDS011;11790;49.578;11.214;2023-04-08T04:49:37;14.80;;;9.38;;
23242;SDS011;11790;49.578;11.214;2023-04-08T04:54:39;16.75;;;9.77;;
23242;SDS011;11790;49.578;11.214;2023-04-08T04:59:39;14.43;;;8.60;;
23242;SDS011;11790;49.578;11.214;2023-04-08T05:04:39;13.68;;;9.15;;
23242;SDS011;11790;49.578;11.214;2023-04-08T05:09:39;13.18;;;8.75;;
23242;SDS011;11790;49.578;11.214;2023-04-08T05:14:40;12.75;;;8.77;;
23242;SDS011;11790;49.578;11.214;2023-04-08T05:19:41;16.77;;;8.68;;
23242;SDS011;11790;49.578;11.214;2023-04-08T05:24:41;17.35;;;8.50;;
23242;SDS011;11790;49.578;11.214;2023-04-08T05:29:41;15.57;;;8.77;;
23242;SDS011;11790;49.578;11.214;2023-04-08T05:34:41;17.55;;;8.52;;
23242;SDS011;11790;49.578;11.214;2023-04-08T05:39:43;12.93;;;8.17;;
23242;SDS011;11790;49.578;11.214;2023-04-08T05:44:43;11.70;;;7.72;;
23242;SDS011;11790;49.578;11.214;2023-04-08T05:49:43;12.63;;;8.25;;
23242;SDS011;11790;49.578;11.214;2023-04-08T05:54:43;12.75;;;8.13;;
23242;SDS011;11790;49.578;11.214;2023-04-08T05:59:44;12.18;;;7.57;;
23242;SDS011;11790;49.578;11.214;2023-04-08T06:04:45;11.67;;;8.10;;
23242;SDS011;11790;49.578;11.214;2023-04-08T06:09:45;17.67;;;7.55;;
23242;SDS011;11790;49.578;11.214;2023-04-08T06:14:45;16.50;;;7.65;;
23242;SDS011;11790;49.578;11.214;2023-04-08T06:19:46;13.70;;;7.00;;
23242;SDS011;11790;49.578;11.214;2023-04-08T06:24:46;12.27;;;7.50;;
23242;SDS011;11790;49.578;11.214;2023-04-08T06:29:47;10.63;;;6.82;;
23242;SDS011;11790;49.578;11.214;2023-04-08T06:34:47;12.43;;;7.32;;
23242;SDS011;11790;49.578;11.214;2023-04-08T06:39:47;10.18;;;6.55;;
23242;SDS011;11790;49.578;11.214;2023-04-08T06:44:47;10.70;;;6.95;;
23242;SDS011;11790;49.578;11.214;2023-04-08T06:49:48;10.00;;;6.82;;
23242;SDS011;11790;49.578;11.214;2023-04-08T06:54:48;9.95;;;6.97;;
23242;SDS011;11790;49.578;11.214;2023-04-08T06:59:48;12.55;;;7.40;;
23242;SDS011;11790;49.578;11.214;2023-04-08T07:04:48;11.02;;;7.00;;
23242;SDS011;11790;49.578;11.214;2023-04-08T07:09:49;10.45;;;6.35;;
23242;SDS011;11790;49.578;11.214;2023-04-08T07:14:49;9.95;;;6.32;;
23242;SDS011;11790;49.578;11.214;2023-04-08T07:19:49;10.38;;;6.40;;
23242;SDS011;11790;49.578;11.214;2023-04-08T07:24:50;10.43;;;6.22;;
23242;SDS011;11790;49.578;11.214;2023-04-08T07:29:51;13.13;;;6.68;;
23242;SDS011;11790;49.578;11.214;2023-04-08T07:34:52;10.15;;;6.00;;
23242;SDS011;11790;49.578;11.214;2023-04-08T07:39:52;8.88;;;6.28;;
23242;SDS011;11790;49.578;11.214;2023-04-08T07:44:52;9.85;;;6.72;;
23242;SDS011;11790;49.578;11.214;2023-04-08T07:49:52;9.23;;;6.50;;
23242;SDS011;11790;49.578;11.214;2023-04-08T07:54:53;10.82;;;6.40;;
23242;SDS011;11790;49.578;11.214;2023-04-08T07:59:53;10.43;;;6.88;;
23242;SDS011;11790;49.578;11.214;2023-04-08T08:04:53;13.40;;;7.13;;
23242;SDS011;11790;49.578;11.214;2023-04-08T08:09:54;12.15;;;7.45;;
23242;SDS011;11790;49.578;11.214;2023-04-08T08:14:54;12.10;;;7.60;;
23242;SDS011;11790;49.578;11.214;2023-04-08T08:19:58;12.55;;;8.00;;
23242;SDS011;11790;49.578;11.214;2023-04-08T08:24:58;11.82;;;7.35;;
23242;SDS011;11790;49.578;11.214;2023-04-08T08:29:59;12.98;;;8.10;;
23242;SDS011;11790;49.578;11.214;2023-04-08T08:34:59;13.07;;;7.00;;
23242;SDS011;11790;49.578;11.214;2023-04-08T08:39:59;11.95;;;7.88;;
23242;SDS011;11790;49.578;11.214;2023-04-08T08:45:03;11.18;;;7.38;;
23242;SDS011;11790;49.578;11.214;2023-04-08T08:50:03;10.88;;;7.00;;
23242;SDS011;11790;49.578;11.214;2023-04-08T08:55:04;11.98;;;7.07;;
23242;SDS011;11790;49.578;11.214;2023-04-08T09:00:04;12.45;;;7.50;;
23242;SDS011;11790;49.578;11.214;2023-04-08T09:05:05;15.57;;;7.07;;
23242;SDS011;11790;49.578;11.214;2023-04-08T09:10:05;11.60;;;6.70;;
23242;SDS011;11790;49.578;11.214;2023-04-08T09:15:07;10.98;;;7.00;;
23242;SDS011;11790;49.578;11.214;2023-04-08T09:20:11;204.63;;;20.35;;
23242;SDS011;11790;49.578;11.214;2023-04-08T09:25:22;14.63;;;6.72;;
23242;SDS011;11790;49.578;11.214;2023-04-08T09:30:22;11.40;;;6.30;;
23242;SDS011;11790;49.578;11.214;2023-04-08T09:35:23;9.00;;;5.70;;
23242;SDS011;11790;49.578;11.214;2023-04-08T09:40:23;8.95;;;6.13;;
23242;SDS011;11790;49.578;11.214;2023-04-08T09:45:25;10.35;;;6.20;;
23242;SDS011;11790;49.578;11.214;2023-04-08T09:50:29;8.13;;;5.63;;
23242;SDS011;11790;49.578;11.214;2023-04-08T09:55:30;11.18;;;6.28;;
23242;SDS011;11790;49.578;11.214;2023-04-08T10:00:35;10.48;;;6.20;;
23242;SDS011;11790;49.578;11.214;2023-04-08T10:05:39;7.93;;;5.53;;
23242;SDS011;11790;49.578;11.214;2023-04-08T10:10:40;8.55;;;5.20;;
23242;SDS011;11790;49.578;11.214;2023-04-08T10:15:40;7.05;;;5.22;;
23242;SDS011;11790;49.578;11.214;2023-04-08T10:20:42;8.10;;;5.18;;
23242;SDS011;11790;49.578;11.214;2023-04-08T10:25:47;7.40;;;4.90;;
23242;SDS011;11790;49.578;11.214;2023-04-08T10:30:51;40.65;;;6.50;;
23242;SDS011;11790;49.578;11.214;2023-04-08T10:35:52;6.45;;;4.85;;
23242;SDS011;11790;49.578;11.214;2023-04-08T10:40:53;7.20;;;5.25;;
23242;SDS011;11790;49.578;11.214;2023-04-08T10:45:53;7.83;;;5.30;;
23242;SDS011;11790;49.578;11.214;2023-04-08T10:50:54;8.82;;;6.25;;
23242;SDS011;11790;49.578;11.214;2023-04-08T11:01:05;9.10;;;6.72;;
23242;SDS011;11790;49.578;11.214;2023-04-08T11:06:06;9.25;;;6.70;;
23242;SDS011;11790;49.578;11.214;2023-04-08T11:11:06;9.77;;;7.00;;
23242;SDS011;11790;49.578;11.214;2023-04-08T11:16:10;10.77;;;7.70;;
23242;SDS011;11790;49.578;11.214;2023-04-08T11:21:11;14.40;;;7.35;;
23242;SDS011;11790;49.578;11.214;2023-04-08T11:26:11;8.43;;;6.40;;
23242;SDS011;11790;49.578;11.214;2023-04-08T11:31:12;8.60;;;6.55;;
23242;SDS011;11790;49.578;11.214;2023-04-08T11:36:12;8.32;;;5.50;;
23242;SDS011;11790;49.578;11.214;2023-04-08T11:41:13;5.80;;;4.43;;
23242;SDS011;11790;49.578;11.214;2023-04-08T11:46:13;6.18;;;4.38;;
23242;SDS011;11790;49.578;11.214;2023-04-08T11:51:14;8.07;;;5.13;;
23242;SDS011;11790;49.578;11.214;2023-04-08T11:56:15;7.60;;;5.10;;
23242;SDS011;11790;49.578;11.214;2023-04-08T12:01:16;5.85;;;3.92;;
23242;SDS011;11790;49.578;11.214;2023-04-08T12:06:17;6.15;;;4.32;;
23242;SDS011;11790;49.578;11.214;2023-04-08T12:11:17;5.70;;;4.07;;
23242;SDS011;11790;49.578;11.214;2023-04-08T12:16:17;6.38;;;4.35;;
23242;SDS011;11790;49.578;11.214;2023-04-08T12:21:18;6.28;;;4.35;;
23242;SDS011;11790;49.578;11.214;2023-04-08T12:26:18;6.43;;;4.45;;
23242;SDS011;11790;49.578;11.214;2023-04-08T12:31:19;5.82;;;3.97;;
23242;SDS011;11790;49.578;11.214;2023-04-08T12:36:19;7.18;;;4.70;;
23242;SDS011;11790;49.578;11.214;2023-04-08T12:41:19;6.97;;;4.57;;
23242;SDS011;11790;49.578;11.214;2023-04-08T12:46:19;6.93;;;4.20;;
23242;SDS011;11790;49.578;11.214;2023-04-08T12:51:20;5.60;;;4.20;;
23242;SDS011;11790;49.578;11.214;2023-04-08T12:56:20;6.45;;;4.20;;
23242;SDS011;11790;49.578;11.214;2023-04-08T13:01:21;8.65;;;3.92;;
23242;SDS011;11790;49.578;11.214;2023-04-08T13:06:21;7.38;;;4.10;;
23242;SDS011;11790;49.578;11.214;2023-04-08T13:11:21;6.82;;;3.30;;
23242;SDS011;11790;49.578;11.214;2023-04-08T13:16:22;6.15;;;3.83;;
23242;SDS011;11790;49.578;11.214;2023-04-08T13:21:22;4.57;;;3.40;;
23242;SDS011;11790;49.578;11.214;2023-04-08T13:26:22;9.50;;;6.57;;
23242;SDS011;11790;49.578;11.214;2023-04-08T13:31:23;6.70;;;4.72;;
23242;SDS011;11790;49.578;11.214;2023-04-08T13:36:23;5.13;;;3.35;;
23242;SDS011;11790;49.578;11.214;2023-04-08T13:41:23;5.88;;;3.53;;
23242;SDS011;11790;49.578;11.214;2023-04-08T13:46:24;5.47;;;3.90;;
23242;SDS011;11790;49.578;11.214;2023-04-08T13:51:24;4.60;;;3.35;;
23242;SDS011;11790;49.578;11.214;2023-04-08T13:56:25;4.93;;;3.10;;
23242;SDS011;11790;49.578;11.214;2023-04-08T14:01:26;4.18;;;3.20;;
23242;SDS011;11790;49.578;11.214;2023-04-08T14:06:26;5.15;;;3.28;;
23242;SDS011;11790;49.578;11.214;2023-04-08T14:11:26;3.53;;;2.90;;
23242;SDS011;11790;49.578;11.214;2023-04-08T14:16:26;4.00;;;3.05;;
23242;SDS011;11790;49.578;11.214;2023-04-08T14:21:28;4.40;;;3.28;;
23242;SDS011;11790;49.578;11.214;2023-04-08T14:26:28;4.75;;;3.03;;
23242;SDS011;11790;49.578;11.214;2023-04-08T14:31:29;3.97;;;3.00;;
23242;SDS011;11790;49.578;11.214;2023-04-08T14:36:30;4.85;;;3.63;;
23242;SDS011;11790;49.578;11.214;2023-04-08T14:41:30;4.18;;;3.10;;
23242;SDS011;11790;49.578;11.214;2023-04-08T14:46:30;4.00;;;2.92;;
23242;SDS011;11790;49.578;11.214;2023-04-08T14:51:31;4.40;;;3.00;;
23242;SDS011;11790;49.578;11.214;2023-04-08T14:56:32;4.03;;;3.08;;
23242;SDS011;11790;49.578;11.214;2023-04-08T15:01:32;4.70;;;3.30;;
23242;SDS011;11790;49.578;11.214;2023-04-08T15:06:32;11.52;;;6.43;;
23242;SDS011;11790;49.578;11.214;2023-04-08T15:11:33;29.45;;;13.07;;
23242;SDS011;11790;49.578;11.214;2023-04-08T15:16:33;9.60;;;5.22;;
23242;SDS011;11790;49.578;11.214;2023-04-08T15:21:33;7.35;;;4.13;;
23242;SDS011;11790;49.578;11.214;2023-04-08T15:26:33;6.38;;;4.15;;
23242;SDS011;11790;49.578;11.214;2023-04-08T15:31:33;4.95;;;3.20;;
23242;SDS011;11790;49.578;11.214;2023-04-08T15:36:34;6.25;;;3.97;;
23242;SDS011;11790;49.578;11.214;2023-04-08T15:41:36;4.93;;;3.30;;
23242;SDS011;11790;49.578;11.214;2023-04-08T15:46:36;4.43;;;3.10;;
23242;SDS011;11790;49.578;11.214;2023-04-08T15:51:36;3.72;;;2.70;;
23242;SDS011;11790;49.578;11.214;2023-04-08T15:56:36;4.55;;;2.92;;
23242;SDS011;11790;49.578;11.214;2023-04-08T16:01:37;4.50;;;3.10;;
23242;SDS011;11790;49.578;11.214;2023-04-08T16:06:37;3.45;;;2.63;;
23242;SDS011;11790;49.578;11.214;2023-04-08T16:11:37;4.38;;;3.28;;
23242;SDS011;11790;49.578;11.214;2023-04-08T16:16:37;4.28;;;3.10;;
23242;SDS011;11790;49.578;11.214;2023-04-08T16:21:37;5.05;;;3.15;;
23242;SDS011;11790;49.578;11.214;2023-04-08T16:26:38;6.15;;;3.47;;
23242;SDS011;11790;49.578;11.214;2023-04-08T16:31:38;4.85;;;3.55;;
23242;SDS011;11790;49.578;11.214;2023-04-08T16:36:38;6.03;;;3.75;;
23242;SDS011;11790;49.578;11.214;2023-04-08T16:41:38;5.93;;;3.60;;
23242;SDS011;11790;49.578;11.214;2023-04-08T16:46:39;4.82;;;3.45;;
23242;SDS011;11790;49.578;11.214;2023-04-08T16:51:39;6.63;;;3.80;;
23242;SDS011;11790;49.578;11.214;2023-04-08T16:56:39;6.75;;;4.15;;
23242;SDS011;11790;49.578;11.214;2023-04-08T17:01:43;5.85;;;3.65;;
23242;SDS011;11790;49.578;11.214;2023-04-08T17:06:43;5.93;;;3.58;;
23242;SDS011;11790;49.578;11.214;2023-04-08T17:11:43;5.82;;;4.13;;
23242;SDS011;11790;49.578;11.214;2023-04-08T17:16:44;7.75;;;4.97;;
23242;SDS011;11790;49.578;11.214;2023-04-08T17:21:44;9.52;;;5.80;;
23242;SDS011;11790;49.578;11.214;2023-04-08T17:26:45;9.30;;;5.38;;
23242;SDS011;11790;49.578;11.214;2023-04-08T17:31:45;8.80;;;5.75;;
23242;SDS011;11790;49.578;11.214;2023-04-08T17:36:45;9.85;;;5.68;;
23242;SDS011;11790;49.578;11.214;2023-04-08T17:41:45;10.13;;;5.65;;
23242;SDS011;11790;49.578;11.214;2023-04-08T17:46:46;8.13;;;5.70;;
23242;SDS011;11790;49.578;11.214;2023-04-08T17:51:46;10.13;;;5.95;;
23242;SDS011;11790;49.578;11.214;2023-04-08T17:56:46;13.05;;;7.70;;
23242;SDS011;11790;49.578;11.214;2023-04-08T18:01:46;15.52;;;9.43;;
23242;SDS011;11790;49.578;11.214;2023-04-08T18:06:46;18.05;;;10.23;;
23242;SDS011;11790;49.578;11.214;2023-04-08T18:11:47;24.55;;;14.23;;
23242;SDS011;11790;49.578;11.214;2023-04-08T18:16:47;24.17;;;12.23;;
23242;SDS011;11790;49.578;11.214;2023-04-08T18:21:47;16.67;;;9.40;;
23242;SDS011;11790;49.578;11.214;2023-04-08T18:26:47;16.65;;;9.45;;
23242;SDS011;11790;49.578;11.214;2023-04-08T18:31:49;21.30;;;9.48;;
23242;SDS011;11790;49.578;11.214;2023-04-08T18:36:49;16.45;;;8.85;;
23242;SDS011;11790;49.578;11.214;2023-04-08T18:41:49;14.45;;;8.15;;
23242;SDS011;11790;49.578;11.214;2023-04-08T18:46:50;14.70;;;8.50;;
23242;SDS011;11790;49.578;11.214;2023-04-08T18:51:50;14.90;;;8.32;;
23242;SDS011;11790;49.578;11.214;2023-04-08T18:56:51;20.45;;;11.45;;
23242;SDS011;11790;49.578;11.214;2023-04-08T19:01:51;20.67;;;11.35;;
23242;SDS011;11790;49.578;11.214;2023-04-08T19:06:51;21.63;;;12.70;;
23242;SDS011;11790;49.578;11.214;2023-04-08T19:11:51;18.60;;;10.65;;
23242;SDS011;11790;49.578;11.214;2023-04-08T19:16:51;17.35;;;10.45;;
23242;SDS011;11790;49.578;11.214;2023-04-08T19:21:52;16.75;;;9.70;;
23242;SDS011;11790;49.578;11.214;2023-04-08T19:26:52;15.18;;;9.27;;
23242;SDS011;11790;49.578;11.214;2023-04-08T19:31:52;15.30;;;9.63;;
23242;SDS011;11790;49.578;11.214;2023-04-08T19:36:52;19.33;;;11.38;;
23242;SDS011;11790;49.578;11.214;2023-04-08T19:41:53;16.75;;;10.57;;
23242;SDS011;11790;49.578;11.214;2023-04-08T19:46:53;16.30;;;10.18;;
23242;SDS011;11790;49.578;11.214;2023-04-08T19:51:56;19.20;;;11.38;;
23242;SDS011;11790;49.578;11.214;2023-04-08T19:56:57;17.60;;;10.52;;
23242;SDS011;11790;49.578;11.214;2023-04-08T20:01:57;19.90;;;12.13;;
23242;SDS011;11790;49.578;11.214;2023-04-08T20:06:57;20.30;;;11.80;;
23242;SDS011;11790;49.578;11.214;2023-04-08T20:12:01;16.08;;;10.40;;
23242;SDS011;11790;49.578;11.214;2023-04-08T20:17:04;19.60;;;12.35;;
23242;SDS011;11790;49.578;11.214;2023-04-08T20:22:05;22.05;;;12.27;;
23242;SDS011;11790;49.578;11.214;2023-04-08T20:27:06;20.10;;;10.68;;
23242;SDS011;11790;49.578;11.214;2023-04-08T20:32:06;17.25;;;10.15;;
23242;SDS011;11790;49.578;11.214;2023-04-08T20:37:06;19.95;;;10.93;;
23242;SDS011;11790;49.578;11.214;2023-04-08T20:42:06;19.10;;;11.00;;
23242;SDS011;11790;49.578;11.214;2023-04-08T20:47:08;16.15;;;9.27;;
23242;SDS011;11790;49.578;11.214;2023-04-08T20:52:08;17.20;;;10.07;;
23242;SDS011;11790;49.578;11.214;2023-04-08T20:57:09;16.60;;;9.98;;
23242;SDS011;11790;49.578;11.214;2023-04-08T21:02:09;17.10;;;9.63;;
23242;SDS011;11790;49.578;11.214;2023-04-08T21:07:09;16.00;;;9.60;;
23242;SDS011;11790;49.578;11.214;2023-04-08T21:12:09;17.50;;;9.70;;
23242;SDS011;11790;49.578;11.214;2023-04-08T21:17:10;17.23;;;10.87;;
23242;SDS011;11790;49.578;11.214;2023-04-08T21:22:10;18.67;;;9.52;;
23242;SDS011;11790;49.578;11.214;2023-04-08T21:27:10;16.95;;;9.48;;
23242;SDS011;11790;49.578;11.214;2023-04-08T21:32:11;16.65;;;9.57;;
23242;SDS011;11790;49.578;11.214;2023-04-08T21:37:11;17.35;;;10.02;;
23242;SDS011;11790;49.578;11.214;2023-04-08T21:42:11;17.60;;;10.32;;
23242;SDS011;11790;49.578;11.214;2023-04-08T21:47:11;16.40;;;10.18;;
23242;SDS011;11790;49.578;11.214;2023-04-08T21:52:12;17.02;;;10.10;;
23242;SDS011;11790;49.578;11.214;2023-04-08T21:57:12;19.80;;;11.57;;
23242;SDS011;11790;49.578;11.214;2023-04-08T22:02:12;17.33;;;10.57;;
23242;SDS011;11790;49.578;11.214;2023-04-08T22:07:12;19.88;;;11.93;;
23242;SDS011;11790;49.578;11.214;2023-04-08T22:12:12;18.35;;;11.18;;
23242;SDS011;11790;49.578;11.214;2023-04-08T22:17:12;18.60;;;10.63;;
23242;SDS011;11790;49.578;11.214;2023-04-08T22:22:13;17.25;;;10.35;;
23242;SDS011;11790;49.578;11.214;2023-04-08T22:27:13;19.63;;;11.23;;
23242;SDS011;11790;49.578;11.214;2023-04-08T22:32:13;16.25;;;9.77;;
23242;SDS011;11790;49.578;11.214;2023-04-08T22:37:13;17.85;;;9.75;;
23242;SDS011;11790;49.578;11.214;2023-04-08T22:42:14;16.75;;;9.93;;
23242;SDS011;11790;49.578;11.214;2023-04-08T22:47:14;17.58;;;10.02;;
23242;SDS011;11790;49.578;11.214;2023-04-08T22:52:15;18.40;;;11.27;;
23242;SDS011;11790;49.578;11.214;2023-04-08T22:57:15;17.05;;;10.00;;
23242;SDS011;11790;49.578;11.214;2023-04-08T23:02:15;18.05;;;10.48;;
23242;SDS011;11790;49.578;11.214;2023-04-08T23:07:15;21.77;;;11.13;;
23242;SDS011;11790;49.578;11.214;2023-04-08T23:12:15;19.33;;;10.32;;
23242;SDS011;11790;49.578;11.214;2023-04-08T23:17:16;20.90;;;11.00;;
23242;SDS011;11790;49.578;11.214;2023-04-08T23:22:16;19.30;;;11.47;;
23242;SDS011;11790;49.578;11.214;2023-04-08T23:27:16;18.25;;;10.95;;
23242;SDS011;11790;49.578;11.214;2023-04-08T23:32:16;19.70;;;10.63;;
23242;SDS011;11790;49.578;11.214;2023-04-08T23:37:16;22.77;;;11.70;;
23242;SDS011;11790;49.578;11.214;2023-04-08T23:42:17;20.80;;;11.70;;
23242;SDS011;11790;49.578;11.214;2023-04-08T23:47:17;16.73;;;9.80;;
23242;SDS011;11790;49.578;11.214;2023-04-08T23:52:17;18.55;;;11.50;;
23242;SDS011;11790;49.578;11.214;2023-04-08T23:57:17;20.27;;;12.43;;
